Time;durP1;ratioP1;P1;durP2;ratioP2;P2;SDS_P1;SDS_P2;PMS_P1;PMS_P2;Temp;Humidity;BMP_temperature;BMP_pressure;BME280_temperature;BME280_humidity;BME280_pressure;Samples;Min_cycle;Max_cycle;Signal;HPM_P1;HPM_P2
2023/07/11 00:00:49;;;;;;;4.28;2.08;;;22.00;90.40;;;;;;5075663;28;20107;-91
2023/07/11 00:03:15;;;;;;;6.50;2.30;;;22.00;90.40;;;;;;5040912;28;20025;-91
2023/07/11 00:05:41;;;;;;;6.30;2.35;;;21.90;90.40;;;;;;5049128;28;20388;-90
2023/07/11 00:08:07;;;;;;;5.20;2.38;;;21.90;90.30;;;;;;5038352;28;20376;-90
2023/07/11 00:10:34;;;;;;;3.95;2.00;;;21.90;90.30;;;;;;5037471;28;20044;-92
2023/07/11 00:13:00;;;;;;;4.55;2.05;;;21.90;90.30;;;;;;5038174;28;20104;-91
2023/07/11 00:15:26;;;;;;;3.47;1.92;;;21.90;90.20;;;;;;5005022;28;20081;-90
2023/07/11 00:17:52;;;;;;;4.18;2.00;;;21.90;90.20;;;;;;5037805;28;20029;-90
2023/07/11 00:20:19;;;;;;;3.83;1.85;;;21.90;90.20;;;;;;5050976;28;20059;-91
2023/07/11 00:22:45;;;;;;;5.15;2.47;;;21.90;90.10;;;;;;5056034;28;20059;-90
2023/07/11 00:25:12;;;;;;;4.03;1.95;;;21.90;90.20;;;;;;5038195;28;20128;-90
2023/07/11 00:27:38;;;;;;;4.72;2.20;;;21.80;90.10;;;;;;5037509;28;20049;-89
2023/07/11 00:30:05;;;;;;;3.67;2.10;;;21.80;90.20;;;;;;5037408;28;20025;-90
2023/07/11 00:32:31;;;;;;;4.57;1.92;;;21.80;90.30;;;;;;5020518;28;20116;-91
2023/07/11 00:34:56;;;;;;;4.95;2.13;;;21.80;90.40;;;;;;5055444;28;20071;-90
2023/07/11 00:37:25;;;;;;;8.13;2.80;;;21.70;90.40;;;;;;5037821;28;20057;-90
2023/07/11 00:39:53;;;;;;;5.40;2.20;;;21.70;90.40;;;;;;5021489;28;20078;-90
2023/07/11 00:42:19;;;;;;;4.32;2.35;;;21.70;90.40;;;;;;5037389;28;20029;-91
2023/07/11 00:45:03;;;;;;;4.05;2.30;;;21.70;90.40;;;;;;5036761;28;20040;-90
2023/07/11 00:47:30;;;;;;;4.45;2.08;;;21.70;90.40;;;;;;5001827;28;20053;-89
2023/07/11 00:50:07;;;;;;;3.25;1.80;;;21.60;90.30;;;;;;5000834;28;20080;-89
2023/07/11 00:52:37;;;;;;;3.78;2.10;;;21.60;90.40;;;;;;5033116;28;20090;-90
2023/07/11 00:55:08;;;;;;;4.07;2.10;;;21.60;90.40;;;;;;5019760;28;20032;-89
2023/07/11 00:57:38;;;;;;;4.13;2.10;;;21.60;90.30;;;;;;5036858;28;20422;-89
2023/07/11 01:00:05;;;;;;;4.20;2.15;;;21.60;90.40;;;;;;5036927;28;20036;-89
2023/07/11 01:02:32;;;;;;;3.15;1.88;;;21.60;90.40;;;;;;5036558;28;20024;-92
2023/07/11 01:04:59;;;;;;;4.43;2.00;;;21.60;90.40;;;;;;5054716;28;20028;-90
2023/07/11 01:07:34;;;;;;;3.38;1.90;;;21.50;90.40;;;;;;5037083;28;20021;-89
2023/07/11 01:10:00;;;;;;;5.97;2.38;;;21.50;90.40;;;;;;5037656;28;20036;-92
2023/07/11 01:12:26;;;;;;;5.25;2.35;;;21.50;90.50;;;;;;5037328;28;20017;-90
2023/07/11 01:14:52;;;;;;;4.05;2.00;;;21.50;90.50;;;;;;5038056;28;20028;-89
2023/07/11 01:17:30;;;;;;;3.80;2.00;;;21.50;90.50;;;;;;5059071;28;20384;-90
2023/07/11 01:20:01;;;;;;;3.00;2.05;;;21.50;90.50;;;;;;5037947;28;20488;-90
2023/07/11 01:22:28;;;;;;;3.85;2.22;;;21.50;90.60;;;;;;5046590;28;20115;-90
2023/07/11 01:24:58;;;;;;;3.15;1.83;;;21.40;90.70;;;;;;5060388;28;20052;-90
2023/07/11 01:27:24;;;;;;;4.60;2.38;;;21.40;90.80;;;;;;5049614;28;20073;-90
2023/07/11 01:29:53;;;;;;;3.55;2.20;;;21.40;90.80;;;;;;5072931;28;20040;-89
2023/07/11 01:32:19;;;;;;;3.50;2.00;;;21.30;90.80;;;;;;5073742;28;20031;-90
2023/07/11 01:34:46;;;;;;;3.53;1.98;;;21.30;90.80;;;;;;5063821;28;20090;-90
2023/07/11 01:37:12;;;;;;;3.17;2.10;;;21.30;90.80;;;;;;5058441;28;20052;-89
2023/07/11 01:39:38;;;;;;;6.65;2.38;;;21.30;90.80;;;;;;5057757;28;20023;-89
2023/07/11 01:42:04;;;;;;;3.08;2.03;;;21.30;90.80;;;;;;5042771;28;20047;-90
2023/07/11 01:44:31;;;;;;;5.68;2.33;;;21.30;90.80;;;;;;5054072;28;20087;-87
2023/07/11 01:46:57;;;;;;;4.03;1.92;;;21.30;90.80;;;;;;5036471;28;20025;-90
2023/07/11 01:49:23;;;;;;;4.15;2.20;;;21.30;90.80;;;;;;5035681;28;20025;-89
2023/07/11 01:51:49;;;;;;;4.35;1.92;;;21.30;90.80;;;;;;5039208;28;20028;-90
2023/07/11 01:54:15;;;;;;;5.93;2.45;;;21.30;91.10;;;;;;5024629;28;20387;-90
2023/07/11 01:56:41;;;;;;;4.85;2.20;;;21.30;90.80;;;;;;5020322;28;20025;-90
2023/07/11 01:59:07;;;;;;;3.45;2.03;;;21.30;90.90;;;;;;5051658;28;20021;-91
2023/07/11 02:01:33;;;;;;;3.75;2.00;;;21.20;90.80;;;;;;5023351;28;20025;-86
2023/07/11 02:03:59;;;;;;;5.00;2.40;;;21.20;90.80;;;;;;5040232;28;20029;-90
2023/07/11 02:06:25;;;;;;;3.92;2.30;;;21.10;90.90;;;;;;5039542;28;20029;-90
2023/07/11 02:08:53;;;;;;;3.28;1.98;;;21.10;90.90;;;;;;5039868;28;20017;-89
2023/07/11 02:11:19;;;;;;;5.03;2.30;;;21.10;90.90;;;;;;5040125;28;20017;-92
2023/07/11 02:13:45;;;;;;;4.03;1.90;;;21.10;91.00;;;;;;5056560;28;20448;-89
2023/07/11 02:16:10;;;;;;;5.28;2.25;;;21.10;91.10;;;;;;5015521;28;20061;-90
2023/07/11 02:18:36;;;;;;;4.25;1.95;;;21.00;91.20;;;;;;5019725;28;20460;-89
2023/07/11 02:21:02;;;;;;;3.53;1.90;;;21.00;91.30;;;;;;5007500;28;20028;-89
2023/07/11 02:23:27;;;;;;;3.22;2.08;;;21.00;91.30;;;;;;5043399;28;20055;-89
2023/07/11 02:25:54;;;;;;;3.03;2.22;;;21.00;91.40;;;;;;5041009;28;20123;-90
2023/07/11 02:28:21;;;;;;;8.07;2.30;;;20.90;91.50;;;;;;5039707;28;20099;-89
2023/07/11 02:30:49;;;;;;;4.90;2.55;;;20.90;91.60;;;;;;5040291;28;20025;-91
2023/07/11 02:33:15;;;;;;;5.95;2.13;;;20.80;91.70;;;;;;5041347;28;20029;-90
2023/07/11 02:35:41;;;;;;;5.63;2.05;;;20.80;91.80;;;;;;5042772;28;20032;-91
2023/07/11 02:38:07;;;;;;;4.00;2.30;;;20.70;91.90;;;;;;5039556;28;20032;-91
2023/07/11 02:40:33;;;;;;;4.57;2.53;;;20.70;91.90;;;;;;5029643;28;20082;-91
2023/07/11 02:42:58;;;;;;;4.45;1.75;;;20.70;91.90;;;;;;5057113;28;20049;-90
2023/07/11 02:45:24;;;;;;;4.85;2.10;;;20.70;92.00;;;;;;5012180;28;20039;-90
2023/07/11 02:47:53;;;;;;;4.50;2.40;;;20.70;92.10;;;;;;5039846;28;20025;-89
2023/07/11 02:50:18;;;;;;;6.65;2.40;;;20.60;92.20;;;;;;5039952;28;20025;-89
2023/07/11 02:52:44;;;;;;;4.63;2.33;;;20.60;92.30;;;;;;5039675;28;20025;-91
2023/07/11 02:55:10;;;;;;;3.50;2.00;;;20.60;92.40;;;;;;5039749;28;20112;-92
2023/07/11 02:57:43;;;;;;;6.10;2.50;;;20.60;92.40;;;;;;5044623;28;20059;-90
2023/07/11 03:00:09;;;;;;;5.45;2.40;;;20.50;92.40;;;;;;5040291;28;20456;-91
2023/07/11 03:02:35;;;;;;;4.82;2.42;;;20.50;92.40;;;;;;5042603;28;20025;-90
2023/07/11 03:05:01;;;;;;;5.80;2.55;;;20.50;92.40;;;;;;5056111;28;20072;-91
2023/07/11 03:07:27;;;;;;;2.92;2.28;;;20.50;92.40;;;;;;5055546;28;20063;-91
2023/07/11 03:09:53;;;;;;;3.95;2.15;;;20.50;92.30;;;;;;5055418;28;20017;-92
2023/07/11 03:12:19;;;;;;;3.90;2.20;;;20.50;92.30;;;;;;5021474;28;20025;-90
2023/07/11 03:14:44;;;;;;;3.53;2.33;;;20.40;92.30;;;;;;5039198;28;20037;-91
2023/07/11 03:17:10;;;;;;;7.32;2.70;;;20.50;92.30;;;;;;5039213;28;20021;-90
2023/07/11 03:19:36;;;;;;;3.80;2.28;;;20.40;92.40;;;;;;5023547;28;20029;-89
2023/07/11 03:22:02;;;;;;;4.45;2.47;;;20.40;92.50;;;;;;5041662;28;20087;-91
2023/07/11 03:24:27;;;;;;;3.63;2.30;;;20.40;92.60;;;;;;5046669;28;20064;-90
2023/07/11 03:26:53;;;;;;;5.53;2.70;;;20.40;92.60;;;;;;5040537;28;20059;-89
2023/07/11 03:29:19;;;;;;;4.30;2.28;;;20.30;92.70;;;;;;5055315;28;20039;-90
2023/07/11 03:31:44;;;;;;;4.53;2.38;;;20.30;92.70;;;;;;5071529;28;20036;-88
2023/07/11 03:34:10;;;;;;;5.20;2.63;;;20.30;92.80;;;;;;5051997;28;20447;-91
2023/07/11 03:36:36;;;;;;;5.85;2.63;;;20.30;92.80;;;;;;5060280;28;20404;-91
2023/07/11 03:39:03;;;;;;;6.30;3.13;;;20.20;92.80;;;;;;5044283;28;20120;-90
2023/07/11 03:41:29;;;;;;;5.28;2.78;;;20.20;92.70;;;;;;5022582;28;20060;-89
2023/07/11 03:43:55;;;;;;;6.47;2.50;;;20.20;92.80;;;;;;5038232;28;20058;-88
2023/07/11 03:46:21;;;;;;;3.50;2.42;;;20.20;92.70;;;;;;5051463;28;20021;-88
2023/07/11 03:48:46;;;;;;;5.32;2.60;;;20.20;92.70;;;;;;5028840;28;20444;-90
2023/07/11 03:51:12;;;;;;;4.95;2.55;;;20.20;92.70;;;;;;5022374;28;20043;-89
2023/07/11 03:53:38;;;;;;;3.58;2.38;;;20.20;92.70;;;;;;5038015;28;20025;-91
2023/07/11 03:56:06;;;;;;;5.38;2.95;;;20.20;92.70;;;;;;5054589;28;20400;-90
2023/07/11 03:58:31;;;;;;;6.80;2.70;;;20.20;92.70;;;;;;5055439;28;20021;-90
2023/07/11 04:00:57;;;;;;;3.58;2.35;;;20.20;92.60;;;;;;5021019;28;20423;-89
2023/07/11 04:03:23;;;;;;;3.72;2.20;;;20.20;92.60;;;;;;5045017;28;20020;-89
2023/07/11 04:05:50;;;;;;;3.72;2.05;;;20.20;92.60;;;;;;5020627;28;20131;-89
2023/07/11 04:08:16;;;;;;;4.50;2.50;;;20.20;92.60;;;;;;5037844;28;20029;-88
2023/07/11 04:10:41;;;;;;;5.78;2.70;;;20.20;92.60;;;;;;5054255;28;20021;-89
2023/07/11 04:13:07;;;;;;;5.50;2.67;;;20.20;92.60;;;;;;5054301;28;20025;-89
2023/07/11 04:15:33;;;;;;;4.32;2.28;;;20.30;92.60;;;;;;5038263;28;20025;-89
2023/07/11 04:17:59;;;;;;;5.18;2.20;;;20.30;92.60;;;;;;5054647;28;20048;-89
2023/07/11 04:20:24;;;;;;;5.55;2.67;;;20.30;92.60;;;;;;5021123;28;20013;-89
2023/07/11 04:22:53;;;;;;;5.57;2.67;;;20.30;92.60;;;;;;5037339;28;20028;-88
2023/07/11 04:25:19;;;;;;;6.65;2.30;;;20.30;92.60;;;;;;5037369;28;20036;-89
2023/07/11 04:27:44;;;;;;;4.57;2.33;;;20.30;92.60;;;;;;5037867;28;20052;-88
2023/07/11 04:30:11;;;;;;;5.88;2.85;;;20.30;92.60;;;;;;5020513;28;20064;-89
2023/07/11 04:32:37;;;;;;;4.38;2.42;;;20.30;92.60;;;;;;5037747;28;20108;-90
2023/07/11 04:35:04;;;;;;;4.85;2.47;;;20.30;92.70;;;;;;5004729;28;20048;-91
2023/07/11 04:37:30;;;;;;;5.10;2.33;;;20.40;92.70;;;;;;5027894;28;20033;-88
2023/07/11 04:39:55;;;;;;;4.45;2.50;;;20.40;92.70;;;;;;5058900;28;20039;-91
2023/07/11 04:42:21;;;;;;;4.07;2.42;;;20.40;92.70;;;;;;5027083;28;20468;-90
2023/07/11 04:44:47;;;;;;;4.57;2.58;;;20.40;92.70;;;;;;5054037;28;20044;-90
2023/07/11 04:47:12;;;;;;;9.00;2.70;;;20.40;92.70;;;;;;5023101;28;20385;-88
2023/07/11 04:49:38;;;;;;;5.70;2.30;;;20.40;92.70;;;;;;5001555;28;20033;-88
2023/07/11 04:52:04;;;;;;;5.93;2.60;;;20.50;92.70;;;;;;5036554;28;20410;-88
2023/07/11 04:54:30;;;;;;;4.10;2.40;;;20.50;92.70;;;;;;5039838;28;20025;-89
2023/07/11 04:56:59;;;;;;;5.32;2.50;;;20.50;92.70;;;;;;5021235;28;20017;-90
2023/07/11 04:59:26;;;;;;;2.92;2.13;;;20.60;93.00;;;;;;5054905;28;20111;-89
2023/07/11 05:01:52;;;;;;;4.47;2.20;;;20.60;92.70;;;;;;5020569;28;20029;-88
2023/07/11 05:04:17;;;;;;;3.25;2.20;;;20.60;92.70;;;;;;5020930;28;20044;-90
2023/07/11 05:06:44;;;;;;;3.65;2.30;;;20.70;92.70;;;;;;5037420;28;20032;-89
2023/07/11 05:09:09;;;;;;;2.88;1.90;;;20.70;92.70;;;;;;5020763;28;20021;-88
2023/07/11 05:11:36;;;;;;;4.57;2.58;;;20.70;92.70;;;;;;5038060;28;20078;-89
2023/07/11 05:14:03;;;;;;;4.75;2.22;;;20.80;92.70;;;;;;5055896;28;20460;-89
2023/07/11 05:16:31;;;;;;;4.35;1.98;;;20.80;92.60;;;;;;5022325;28;20451;-89
2023/07/11 05:18:58;;;;;;;3.53;2.30;;;20.80;92.60;;;;;;5031709;28;20177;-89
2023/07/11 05:21:25;;;;;;;5.25;2.63;;;20.90;92.60;;;;;;5071929;28;20024;-90
2023/07/11 05:23:51;;;;;;;3.80;2.42;;;20.90;92.70;;;;;;5061879;28;20032;-89
2023/07/11 05:26:18;;;;;;;3.22;2.17;;;20.90;92.70;;;;;;5047075;28;20010;-89
2023/07/11 05:28:45;;;;;;;3.67;1.98;;;21.00;92.70;;;;;;5053953;28;20047;-87
2023/07/11 05:31:11;;;;;;;3.53;2.00;;;21.00;92.80;;;;;;5054541;28;20119;-89
2023/07/11 05:33:37;;;;;;;3.58;2.03;;;21.00;92.80;;;;;;5052925;28;20025;-90
2023/07/11 05:38:40;;;;;;;3.47;2.15;;;21.10;92.80;;;;;;5060167;28;20028;-89
2023/07/11 05:41:06;;;;;;;3.90;2.10;;;21.20;92.80;;;;;;5059669;28;20096;-90
2023/07/11 05:43:32;;;;;;;2.90;1.90;;;21.20;92.70;;;;;;5039504;28;20166;-91
2023/07/11 05:45:58;;;;;;;5.10;2.10;;;21.20;92.70;;;;;;5016813;28;20171;-90
2023/07/11 05:48:23;;;;;;;3.50;2.08;;;21.20;92.60;;;;;;5029106;28;20040;-89
2023/07/11 05:51:13;;;;;;;4.18;2.10;;;21.30;92.60;;;;;;5050885;28;20020;-90
2023/07/11 05:53:39;;;;;;;3.30;2.08;;;21.30;92.50;;;;;;5046412;28;20056;-90
2023/07/11 05:56:05;;;;;;;4.00;2.00;;;21.30;92.50;;;;;;5039820;28;20043;-90
2023/07/11 05:58:34;;;;;;;3.05;1.75;;;21.40;92.40;;;;;;5039869;28;20116;-89
2023/07/11 06:01:00;;;;;;;2.45;1.80;;;21.40;92.30;;;;;;5039543;28;20084;-89
2023/07/11 06:03:29;;;;;;;2.78;1.90;;;21.50;92.30;;;;;;5023571;28;20087;-89
2023/07/11 06:06:03;;;;;;;3.83;2.30;;;21.50;92.20;;;;;;5039626;28;20024;-90
2023/07/11 06:08:32;;;;;;;3.72;2.13;;;21.50;92.10;;;;;;5038410;28;20017;-90
2023/07/11 06:11:03;;;;;;;3.53;2.33;;;21.60;92.00;;;;;;5075955;28;20024;-90
2023/07/11 06:13:31;;;;;;;3.08;1.88;;;21.60;92.00;;;;;;5077770;28;20053;-89
2023/07/11 06:16:07;;;;;;;2.70;1.80;;;21.70;91.90;;;;;;5059626;28;20452;-90
2023/07/11 06:18:34;;;;;;;2.88;1.90;;;21.70;91.90;;;;;;5039380;28;20036;-90
2023/07/11 06:21:08;;;;;;;4.90;2.30;;;21.70;91.70;;;;;;5057324;28;20028;-86
2023/07/11 06:23:34;;;;;;;2.03;1.77;;;21.80;91.70;;;;;;5057911;28;20518;-90
2023/07/11 06:26:03;;;;;;;4.43;1.67;;;21.90;91.60;;;;;;5057624;28;20044;-91
2023/07/11 06:28:30;;;;;;;4.25;1.77;;;21.90;91.60;;;;;;5039626;28;20033;-91
2023/07/11 06:30:58;;;;;;;2.20;1.45;;;22.00;91.60;;;;;;5039575;28;20036;-91
2023/07/11 06:33:25;;;;;;;2.05;1.63;;;22.00;91.60;;;;;;5057095;28;20025;-91
2023/07/11 06:35:51;;;;;;;5.07;1.98;;;22.10;91.60;;;;;;5056921;28;20056;-90
2023/07/11 06:38:18;;;;;;;2.70;1.88;;;22.20;91.60;;;;;;5039313;28;20024;-90
2023/07/11 06:40:49;;;;;;;2.25;1.60;;;22.20;91.60;;;;;;5023441;28;20037;-90
2023/07/11 06:43:15;;;;;;;2.42;1.58;;;22.30;91.60;;;;;;5039369;28;20028;-89
2023/07/11 06:45:41;;;;;;;4.30;1.98;;;22.30;91.60;;;;;;5038217;28;20021;-91
2023/07/11 06:48:07;;;;;;;5.18;1.90;;;22.40;91.60;;;;;;5038772;28;20514;-89
2023/07/11 06:50:34;;;;;;;3.00;1.63;;;22.50;91.50;;;;;;5038859;28;20021;-92
2023/07/11 06:52:59;;;;;;;2.50;1.75;;;22.50;91.40;;;;;;5040078;28;20120;-95
2023/07/11 06:55:25;;;;;;;3.28;1.90;;;22.60;91.30;;;;;;5039956;28;20068;-94
2023/07/11 06:57:51;;;;;;;3.22;1.88;;;22.70;91.20;;;;;;5023794;28;20163;-95
2023/07/11 07:00:19;;;;;;;4.60;2.20;;;22.80;91.20;;;;;;5039312;28;20024;-90
2023/07/11 07:02:46;;;;;;;2.85;2.00;;;22.80;91.20;;;;;;5022339;28;20029;-90
2023/07/11 07:05:11;;;;;;;4.82;2.15;;;22.90;91.20;;;;;;5038946;28;20033;-91
2023/07/11 07:07:37;;;;;;;4.18;2.05;;;22.90;91.00;;;;;;5027536;28;20035;-92
2023/07/11 07:10:06;;;;;;;3.65;2.13;;;23.00;91.00;;;;;;5044564;28;20033;-93
2023/07/11 07:12:32;;;;;;;3.97;2.15;;;23.00;91.00;;;;;;5039809;28;20116;-91
2023/07/11 07:14:57;;;;;;;3.38;2.13;;;23.20;91.00;;;;;;5039845;28;20021;-90
2023/07/11 07:17:23;;;;;;;4.40;2.30;;;23.20;91.00;;;;;;5039106;28;20553;-90
2023/07/11 07:19:49;;;;;;;3.92;2.10;;;23.30;90.90;;;;;;5023057;28;20028;-92
2023/07/11 07:22:15;;;;;;;3.97;2.30;;;23.40;90.90;;;;;;5057263;28;20530;-90
2023/07/11 07:24:41;;;;;;;5.72;2.65;;;23.50;90.80;;;;;;5040426;28;20029;-90
2023/07/11 07:27:10;;;;;;;3.13;2.25;;;23.60;90.80;;;;;;5054090;28;20037;-90
2023/07/11 07:29:35;;;;;;;3.30;2.00;;;23.70;90.80;;;;;;5061247;28;20028;-90
2023/07/11 07:32:04;;;;;;;3.08;1.90;;;23.70;90.80;;;;;;5041160;28;20021;-91
2023/07/11 07:34:29;;;;;;;2.80;2.05;;;23.80;90.80;;;;;;5042729;28;20079;-91
2023/07/11 07:36:55;;;;;;;5.78;2.58;;;23.90;90.80;;;;;;5023918;28;20037;-89
2023/07/11 07:39:21;;;;;;;3.58;2.03;;;24.00;90.80;;;;;;5055825;28;20056;-90
2023/07/11 07:41:47;;;;;;;4.97;2.10;;;24.00;90.80;;;;;;5038220;28;20033;-91
2023/07/11 07:44:13;;;;;;;3.70;2.17;;;24.10;90.70;;;;;;5045419;28;20029;-92
2023/07/11 07:46:39;;;;;;;4.50;2.10;;;24.20;90.60;;;;;;5072990;28;20047;-91
2023/07/11 07:49:04;;;;;;;4.18;2.00;;;24.30;90.60;;;;;;5058842;28;20020;-91
2023/07/11 07:51:30;;;;;;;5.00;2.08;;;24.30;90.50;;;;;;5075643;28;20512;-90
2023/07/11 07:53:56;;;;;;;3.38;1.88;;;24.40;90.40;;;;;;5058479;28;20054;-91
2023/07/11 07:56:23;;;;;;;4.63;2.03;;;24.50;90.40;;;;;;5074933;28;20019;-91
2023/07/11 07:58:50;;;;;;;2.40;1.70;;;24.50;90.30;;;;;;5057501;28;20146;-90
2023/07/11 08:01:18;;;;;;;4.95;2.10;;;24.60;90.60;;;;;;5049651;28;20017;-90
2023/07/11 08:03:44;;;;;;;4.60;2.00;;;24.60;90.20;;;;;;5056052;28;20029;-90
2023/07/11 08:06:11;;;;;;;4.53;1.70;;;24.80;90.10;;;;;;5039547;28;20025;-91
2023/07/11 08:08:37;;;;;;;2.95;1.77;;;24.90;89.70;;;;;;5038755;28;20033;-90
2023/07/11 08:11:05;;;;;;;2.65;1.50;;;24.90;89.60;;;;;;5039393;28;20523;-91
2023/07/11 08:13:30;;;;;;;4.30;1.88;;;25.00;89.30;;;;;;5039663;28;20025;-91
2023/07/11 08:15:56;;;;;;;3.22;1.73;;;25.10;89.20;;;;;;5039019;28;20591;-90
2023/07/11 08:18:22;;;;;;;4.63;1.92;;;25.10;89.60;;;;;;5054515;28;20017;-89
2023/07/11 08:20:48;;;;;;;2.45;1.70;;;25.20;88.80;;;;;;5038264;28;20021;-91
2023/07/11 08:23:14;;;;;;;2.65;1.65;;;25.30;88.40;;;;;;5037223;28;20056;-88
2023/07/11 08:25:41;;;;;;;4.15;1.80;;;25.30;87.80;;;;;;5061525;28;20060;-90
2023/07/11 08:28:07;;;;;;;3.92;1.67;;;25.40;87.50;;;;;;5068703;28;20538;-91
2023/07/11 08:30:37;;;;;;;3.50;1.83;;;25.50;87.40;;;;;;5022258;28;20052;-90
2023/07/11 08:33:03;;;;;;;3.70;1.42;;;25.50;87.10;;;;;;5022201;28;20025;-90
2023/07/11 08:35:29;;;;;;;2.83;1.85;;;25.60;86.70;;;;;;5037531;28;20109;-91
2023/07/11 08:37:56;;;;;;;3.60;1.65;;;25.70;86.70;;;;;;5038803;28;20400;-91
2023/07/11 08:40:29;;;;;;;2.30;1.48;;;25.70;86.40;;;;;;5055105;28;20021;-91
2023/07/11 08:42:55;;;;;;;3.58;1.83;;;25.80;86.10;;;;;;5038670;28;20032;-93
2023/07/11 08:45:38;;;;;;;3.03;1.73;;;25.80;85.90;;;;;;5037985;28;20083;-90
2023/07/11 08:48:19;;;;;;;2.83;1.70;;;25.90;85.50;;;;;;5017682;28;20021;-91
2023/07/11 08:51:13;;;;;;;4.63;1.65;;;25.90;85.40;;;;;;5052198;28;20025;-91
2023/07/11 08:53:55;;;;;;;2.80;1.55;;;26.00;85.20;;;;;;5036378;28;20383;-91
2023/07/11 08:56:29;;;;;;;2.72;1.70;;;26.10;84.80;;;;;;5053736;28;20032;-92
2023/07/11 08:59:00;;;;;;;4.00;1.85;;;26.10;84.40;;;;;;5037459;28;20021;-91
2023/07/11 09:01:40;;;;;;;3.03;1.75;;;26.20;83.90;;;;;;5037614;28;20113;-94
2023/07/11 09:04:12;;;;;;;3.60;1.50;;;26.20;83.60;;;;;;5054964;28;20025;-92
2023/07/11 09:06:59;;;;;;;2.38;1.55;;;26.30;83.70;;;;;;5047626;28;20143;-91
2023/07/11 09:09:25;;;;;;;3.03;1.70;;;26.40;83.50;;;;;;5042933;28;20025;-91
2023/07/11 09:12:03;;;;;;;7.40;2.00;;;26.40;83.40;;;;;;5058353;28;20551;-92
2023/07/11 09:14:59;;;;;;;5.07;1.50;;;26.50;83.00;;;;;;5034842;28;20029;-92
2023/07/11 09:17:56;;;;;;;3.38;1.70;;;26.50;82.90;;;;;;5023828;28;20032;-91
2023/07/11 09:20:46;;;;;;;3.45;1.58;;;26.60;82.80;;;;;;5036921;28;20334;-91
2023/07/11 09:23:43;;;;;;;3.25;1.50;;;26.60;82.10;;;;;;5037831;28;20017;-91
2023/07/11 09:26:21;;;;;;;3.75;1.30;;;26.70;81.70;;;;;;5033024;28;20060;-89
2023/07/11 09:28:47;;;;;;;3.10;1.48;;;26.70;81.30;;;;;;5037661;28;20029;-93
2023/07/11 09:31:18;;;;;;;3.53;1.60;;;26.70;81.00;;;;;;5022091;28;20372;-90
2023/07/11 09:33:56;;;;;;;3.03;1.48;;;26.70;81.10;;;;;;5046327;28;20089;-86
2023/07/11 09:36:33;;;;;;;3.75;1.52;;;26.70;80.70;;;;;;5048920;28;20028;-86
2023/07/11 09:39:24;;;;;;;5.18;1.75;;;26.80;81.10;;;;;;5023590;28;20024;-90
2023/07/11 09:42:12;;;;;;;1.88;1.40;;;26.80;81.10;;;;;;5055126;28;20021;-92
2023/07/11 09:44:37;;;;;;;2.78;1.30;;;26.80;81.30;;;;;;5030962;28;20025;-90
2023/07/11 09:47:19;;;;;;;3.03;1.35;;;26.90;81.30;;;;;;5050770;28;20052;-91
2023/07/11 09:49:47;;;;;;;4.05;2.00;;;27.00;81.20;;;;;;5063839;28;20036;-90
2023/07/11 09:52:26;;;;;;;2.85;1.25;;;27.10;80.80;;;;;;5023092;28;20063;-90
2023/07/11 09:54:52;;;;;;;5.38;1.63;;;27.10;80.20;;;;;;5067040;28;20033;-90
2023/07/11 09:57:18;;;;;;;6.30;1.80;;;27.10;79.80;;;;;;5037525;28;20029;-90
2023/07/11 09:59:53;;;;;;;2.92;1.33;;;27.10;79.60;;;;;;5054006;28;20214;-90
2023/07/11 10:02:22;;;;;;;3.58;1.60;;;27.10;79.80;;;;;;5038247;28;20021;-90
2023/07/11 10:04:51;;;;;;;2.33;1.35;;;27.20;79.50;;;;;;5037566;28;20021;-91
2023/07/11 10:07:20;;;;;;;3.50;1.80;;;27.20;79.50;;;;;;5037744;28;20040;-90
2023/07/11 10:09:48;;;;;;;3.45;1.70;;;27.20;79.70;;;;;;5036985;28;20347;-90
2023/07/11 10:12:22;;;;;;;3.33;1.60;;;27.30;79.70;;;;;;5037628;28;20055;-93
2023/07/11 10:14:56;;;;;;;3.63;1.10;;;27.30;79.50;;;;;;5038332;28;20025;-92
2023/07/11 10:17:22;;;;;;;2.80;1.60;;;27.30;79.70;;;;;;5039906;28;20059;-92
2023/07/11 10:20:01;;;;;;;3.53;1.83;;;27.40;79.40;;;;;;5040412;28;20025;-93
2023/07/11 10:22:29;;;;;;;3.40;1.65;;;27.40;78.90;;;;;;5030407;28;20021;-89
2023/07/11 10:25:11;;;;;;;2.45;1.25;;;27.40;78.20;;;;;;5066145;28;20053;-92
2023/07/11 10:27:38;;;;;;;3.28;1.58;;;27.40;77.80;;;;;;5047938;28;20076;-92
2023/07/11 10:30:06;;;;;;;2.78;1.60;;;27.40;77.60;;;;;;5038621;28;20115;-92
2023/07/11 10:32:41;;;;;;;3.25;1.77;;;27.40;77.70;;;;;;5031271;28;20029;-91
2023/07/11 10:35:19;;;;;;;3.88;1.95;;;27.40;77.10;;;;;;5031414;28;20472;-91
2023/07/11 10:38:13;;;;;;;4.43;1.83;;;27.50;76.80;;;;;;5051935;28;20021;-92
2023/07/11 10:40:43;;;;;;;4.55;1.75;;;27.50;77.00;;;;;;5050931;28;20025;-93
2023/07/11 10:43:18;;;;;;;4.10;1.90;;;27.60;77.20;;;;;;5051158;28;20028;-92
2023/07/11 10:45:46;;;;;;;3.67;1.77;;;27.60;77.40;;;;;;5069634;28;20191;-92
2023/07/11 10:48:27;;;;;;;2.70;1.60;;;27.60;77.50;;;;;;5069037;28;20031;-90
2023/07/11 10:51:06;;;;;;;3.78;1.90;;;27.70;77.50;;;;;;5050310;28;20017;-91
2023/07/11 10:53:54;;;;;;;3.30;1.70;;;27.80;76.50;;;;;;5069804;28;20033;-88
2023/07/11 10:56:26;;;;;;;4.25;1.80;;;27.80;76.70;;;;;;5052776;28;20464;-91
2023/07/11 10:58:54;;;;;;;3.08;1.50;;;27.90;76.30;;;;;;5073494;28;20025;-89
2023/07/11 11:01:41;;;;;;;3.60;1.70;;;27.90;75.90;;;;;;5059498;28;20024;-90
2023/07/11 11:04:19;;;;;;;3.55;1.50;;;27.90;75.60;;;;;;5077268;28;20048;-90
2023/07/11 11:06:50;;;;;;;4.35;2.03;;;28.00;75.80;;;;;;5058422;28;20040;-89
2023/07/11 11:09:21;;;;;;;2.85;1.70;;;28.00;75.70;;;;;;5055635;28;20029;-91
2023/07/11 11:12:18;;;;;;;4.50;2.03;;;28.00;75.20;;;;;;5052190;28;20033;-89
2023/07/11 11:15:15;;;;;;;2.20;1.40;;;28.10;75.30;;;;;;5073135;28;20169;-90
2023/07/11 11:17:47;;;;;;;4.30;2.00;;;28.10;75.60;;;;;;5058392;28;20025;-91
2023/07/11 11:20:19;;;;;;;2.63;1.50;;;28.10;75.50;;;;;;5054225;28;20457;-90
2023/07/11 11:23:03;;;;;;;3.70;1.65;;;28.20;75.80;;;;;;5063347;28;20035;-90
2023/07/11 11:26:04;;;;;;;2.70;1.73;;;28.20;75.80;;;;;;5048583;28;20087;-89
2023/07/11 11:28:56;;;;;;;2.92;1.83;;;28.30;75.90;;;;;;5045989;28;20045;-90
2023/07/11 11:31:31;;;;;;;3.00;1.90;;;28.40;75.80;;;;;;5000024;28;20041;-90
2023/07/11 11:34:03;;;;;;;2.45;1.90;;;28.40;75.60;;;;;;5044229;28;20029;-91
2023/07/11 11:36:30;;;;;;;2.72;1.45;;;28.40;75.50;;;;;;5041462;28;20125;-91
2023/07/11 11:39:22;;;;;;;2.05;1.60;;;28.50;75.50;;;;;;5021196;28;20037;-92
2023/07/11 11:42:20;;;;;;;3.45;1.50;;;28.50;75.50;;;;;;5036544;28;20028;-91
2023/07/11 11:44:51;;;;;;;3.30;1.63;;;28.60;75.10;;;;;;5048226;28;20042;-90
2023/07/11 11:47:20;;;;;;;3.25;1.92;;;28.60;74.70;;;;;;5055423;28;20028;-91
2023/07/11 11:49:47;;;;;;;4.60;2.00;;;28.60;74.50;;;;;;5037109;28;20052;-91
2023/07/11 11:52:14;;;;;;;2.95;1.70;;;28.60;74.50;;;;;;5040188;28;20028;-89
2023/07/11 11:54:49;;;;;;;4.40;1.88;;;28.70;74.80;;;;;;5059404;28;20047;-92
2023/07/11 11:57:28;;;;;;;2.35;1.83;;;28.70;75.00;;;;;;5060261;28;20017;-90
2023/07/11 11:59:54;;;;;;;3.47;1.67;;;28.70;74.80;;;;;;5057267;28;20028;-91
2023/07/11 12:02:33;;;;;;;2.33;1.70;;;28.80;74.40;;;;;;5057108;28;20078;-92
2023/07/11 12:05:19;;;;;;;1.65;1.33;;;28.70;74.50;;;;;;5032689;28;20037;-90
2023/07/11 12:07:45;;;;;;;2.90;1.83;;;28.80;74.90;;;;;;5021153;28;20100;-91
2023/07/11 12:10:15;;;;;;;3.92;1.85;;;28.90;75.10;;;;;;5035142;28;20036;-91
2023/07/11 12:12:41;;;;;;;4.43;2.10;;;28.90;74.50;;;;;;5034619;28;20425;-90
2023/07/11 12:15:13;;;;;;;3.58;1.50;;;28.90;74.30;;;;;;5035035;28;20064;-91
2023/07/11 12:17:38;;;;;;;3.15;1.90;;;29.00;74.30;;;;;;5035264;28;20108;-91
2023/07/11 12:20:07;;;;;;;3.28;1.75;;;28.90;74.30;;;;;;5034487;28;20535;-91
2023/07/11 12:22:39;;;;;;;5.22;1.98;;;28.90;74.10;;;;;;5035072;28;20493;-91
2023/07/11 12:25:29;;;;;;;2.28;1.50;;;28.90;73.90;;;;;;5034338;28;20040;-90
2023/07/11 12:27:56;;;;;;;;;;;28.80;73.90;;;;;;5031132;28;20073;-91
2023/07/11 12:30:27;;;;;;;2.42;1.58;;;28.80;73.70;;;;;;5024147;28;19905;-90
2023/07/11 12:32:54;;;;;;;2.63;1.52;;;28.80;73.90;;;;;;5033990;28;20026;-92
2023/07/11 12:35:23;;;;;;;4.63;1.67;;;28.80;73.90;;;;;;5023605;28;20041;-91
2023/07/11 12:38:00;;;;;;;4.38;1.73;;;28.80;73.80;;;;;;5015455;28;20025;-91
2023/07/11 12:40:45;;;;;;;2.38;1.77;;;28.80;73.60;;;;;;5015351;28;20042;-91
2023/07/11 12:43:22;;;;;;;2.83;1.90;;;28.90;73.90;;;;;;5015073;28;20022;-93
2023/07/11 12:45:57;;;;;;;3.05;1.60;;;28.80;74.00;;;;;;5014651;28;20026;-93
2023/07/11 12:48:32;;;;;;;3.50;1.73;;;28.90;74.00;;;;;;5014767;28;20021;-90
2023/07/11 12:51:06;;;;;;;2.67;1.95;;;29.00;74.00;;;;;;5015014;28;20377;-92
2023/07/11 12:53:38;;;;;;;4.90;2.20;;;29.00;74.30;;;;;;5014936;28;20462;-91
2023/07/11 12:56:12;;;;;;;2.65;1.65;;;29.10;74.10;;;;;;5020116;28;20508;-91
2023/07/11 12:58:40;;;;;;;2.30;1.60;;;29.10;74.00;;;;;;5023054;28;20465;-91
2023/07/11 13:01:14;;;;;;;3.70;2.00;;;29.10;74.00;;;;;;5015040;28;20025;-92
2023/07/11 13:03:40;;;;;;;2.30;1.70;;;29.20;74.20;;;;;;5016234;28;20105;-92